sensor_id;sensor_type;location;lat;lon;timestamp;P1;durP1;ratioP1;P2;durP2;ratioP2
33138;SDS011;19501;50.948;5.316;2023-03-20T00:00:09;20.15;;;7.07;;
33138;SDS011;19501;50.948;5.316;2023-03-20T00:02:41;21.65;;;6.88;;
33138;SDS011;19501;50.948;5.316;2023-03-20T00:05:25;18.45;;;6.40;;
33138;SDS011;19501;50.948;5.316;2023-03-20T00:07:52;18.85;;;6.28;;
33138;SDS011;19501;50.948;5.316;2023-03-20T00:10:20;19.20;;;5.75;;
33138;SDS011;19501;50.948;5.316;2023-03-20T00:12:49;18.63;;;6.00;;
33138;SDS011;19501;50.948;5.316;2023-03-20T00:15:25;16.80;;;6.00;;
33138;SDS011;19501;50.948;5.316;2023-03-20T00:18:02;21.88;;;6.03;;
33138;SDS011;19501;50.948;5.316;2023-03-20T00:20:28;15.82;;;5.43;;
33138;SDS011;19501;50.948;5.316;2023-03-20T00:22:54;16.73;;;5.95;;
33138;SDS011;19501;50.948;5.316;2023-03-20T00:25:21;17.88;;;5.72;;
33138;SDS011;19501;50.948;5.316;2023-03-20T00:27:49;15.68;;;5.20;;
33138;SDS011;19501;50.948;5.316;2023-03-20T00:30:26;15.60;;;4.97;;
33138;SDS011;19501;50.948;5.316;2023-03-20T00:32:56;16.67;;;6.60;;
33138;SDS011;19501;50.948;5.316;2023-03-20T00:37:51;18.17;;;6.57;;
33138;SDS011;19501;50.948;5.316;2023-03-20T00:40:17;19.85;;;6.25;;
33138;SDS011;19501;50.948;5.316;2023-03-20T00:42:44;21.13;;;7.47;;
33138;SDS011;19501;50.948;5.316;2023-03-20T00:45:14;18.75;;;6.50;;
33138;SDS011;19501;50.948;5.316;2023-03-20T00:47:43;22.45;;;8.38;;
33138;SDS011;19501;50.948;5.316;2023-03-20T00:50:21;22.58;;;7.93;;
33138;SDS011;19501;50.948;5.316;2023-03-20T00:52:49;25.23;;;9.13;;
33138;SDS011;19501;50.948;5.316;2023-03-20T00:55:16;26.08;;;9.23;;
33138;SDS011;19501;50.948;5.316;2023-03-20T00:57:53;28.00;;;9.93;;
33138;SDS011;19501;50.948;5.316;2023-03-20T01:03:13;32.83;;;11.50;;
33138;SDS011;19501;50.948;5.316;2023-03-20T01:05:49;33.22;;;11.73;;
33138;SDS011;19501;50.948;5.316;2023-03-20T01:08:20;32.45;;;12.88;;
33138;SDS011;19501;50.948;5.316;2023-03-20T01:10:48;33.42;;;13.38;;
33138;SDS011;19501;50.948;5.316;2023-03-20T01:13:18;34.33;;;12.80;;
33138;SDS011;19501;50.948;5.316;2023-03-20T01:15:47;30.38;;;12.70;;
33138;SDS011;19501;50.948;5.316;2023-03-20T01:18:14;33.33;;;13.02;;
33138;SDS011;19501;50.948;5.316;2023-03-20T01:20:41;33.50;;;13.77;;
33138;SDS011;19501;50.948;5.316;2023-03-20T01:23:07;37.97;;;14.35;;
33138;SDS011;19501;50.948;5.316;2023-03-20T01:25:33;38.60;;;14.80;;
33138;SDS011;19501;50.948;5.316;2023-03-20T01:28:00;37.33;;;13.95;;
33138;SDS011;19501;50.948;5.316;2023-03-20T01:30:28;34.95;;;13.07;;
33138;SDS011;19501;50.948;5.316;2023-03-20T01:32:58;39.13;;;14.38;;
33138;SDS011;19501;50.948;5.316;2023-03-20T01:35:26;34.55;;;14.10;;
33138;SDS011;19501;50.948;5.316;2023-03-20T01:37:52;37.03;;;13.48;;
33138;SDS011;19501;50.948;5.316;2023-03-20T01:40:29;32.92;;;12.77;;
33138;SDS011;19501;50.948;5.316;2023-03-20T01:43:01;34.42;;;12.50;;
33138;SDS011;19501;50.948;5.316;2023-03-20T01:45:31;34.05;;;12.60;;
33138;SDS011;19501;50.948;5.316;2023-03-20T01:48:00;32.03;;;10.80;;
33138;SDS011;19501;50.948;5.316;2023-03-20T01:50:37;31.75;;;11.57;;
33138;SDS011;19501;50.948;5.316;2023-03-20T01:53:11;32.47;;;11.88;;
33138;SDS011;19501;50.948;5.316;2023-03-20T01:55:47;28.58;;;10.98;;
33138;SDS011;19501;50.948;5.316;2023-03-20T01:58:18;29.95;;;10.95;;
33138;SDS011;19501;50.948;5.316;2023-03-20T02:00:48;30.57;;;11.57;;
33138;SDS011;19501;50.948;5.316;2023-03-20T02:03:14;30.48;;;11.85;;
33138;SDS011;19501;50.948;5.316;2023-03-20T02:05:41;27.90;;;10.50;;
33138;SDS011;19501;50.948;5.316;2023-03-20T02:08:14;25.67;;;10.68;;
33138;SDS011;19501;50.948;5.316;2023-03-20T02:10:42;25.30;;;10.45;;
33138;SDS011;19501;50.948;5.316;2023-03-20T02:13:09;28.63;;;10.40;;
33138;SDS011;19501;50.948;5.316;2023-03-20T02:15:50;26.05;;;10.52;;
33138;SDS011;19501;50.948;5.316;2023-03-20T02:18:31;29.85;;;10.45;;
33138;SDS011;19501;50.948;5.316;2023-03-20T02:43:13;27.05;;;10.23;;
33138;SDS011;19501;50.948;5.316;2023-03-20T02:51:26;28.17;;;10.63;;
33138;SDS011;19501;50.948;5.316;2023-03-20T02:54:12;24.73;;;9.55;;
33138;SDS011;19501;50.948;5.316;2023-03-20T03:02:16;25.30;;;10.05;;
33138;SDS011;19501;50.948;5.316;2023-03-20T03:04:50;26.02;;;10.25;;
33138;SDS011;19501;50.948;5.316;2023-03-20T03:07:23;28.40;;;9.98;;
33138;SDS011;19501;50.948;5.316;2023-03-20T03:09:54;24.23;;;9.50;;
33138;SDS011;19501;50.948;5.316;2023-03-20T03:12:28;27.02;;;9.63;;
33138;SDS011;19501;50.948;5.316;2023-03-20T03:14:59;23.13;;;9.40;;
33138;SDS011;19501;50.948;5.316;2023-03-20T03:17:44;25.55;;;9.48;;
33138;SDS011;19501;50.948;5.316;2023-03-20T03:20:27;25.98;;;9.38;;
33138;SDS011;19501;50.948;5.316;2023-03-20T03:22:56;29.23;;;10.27;;
33138;SDS011;19501;50.948;5.316;2023-03-20T03:25:24;25.67;;;10.63;;
33138;SDS011;19501;50.948;5.316;2023-03-20T03:28:01;28.25;;;10.52;;
33138;SDS011;19501;50.948;5.316;2023-03-20T03:30:46;25.77;;;9.63;;
33138;SDS011;19501;50.948;5.316;2023-03-20T03:35:49;24.98;;;9.35;;
33138;SDS011;19501;50.948;5.316;2023-03-20T03:38:27;29.10;;;10.80;;
33138;SDS011;19501;50.948;5.316;2023-03-20T03:41:03;24.50;;;9.07;;
33138;SDS011;19501;50.948;5.316;2023-03-20T03:49:05;29.17;;;10.30;;
33138;SDS011;19501;50.948;5.316;2023-03-20T03:51:34;26.00;;;9.10;;
33138;SDS011;19501;50.948;5.316;2023-03-20T03:54:15;28.70;;;10.82;;
33138;SDS011;19501;50.948;5.316;2023-03-20T03:56:45;27.02;;;10.63;;
33138;SDS011;19501;50.948;5.316;2023-03-20T03:59:23;29.08;;;11.05;;
33138;SDS011;19501;50.948;5.316;2023-03-20T04:01:56;27.50;;;11.30;;
33138;SDS011;19501;50.948;5.316;2023-03-20T04:04:25;28.45;;;11.00;;
33138;SDS011;19501;50.948;5.316;2023-03-20T04:06:52;29.05;;;10.80;;
33138;SDS011;19501;50.948;5.316;2023-03-20T04:09:17;27.13;;;11.18;;
33138;SDS011;19501;50.948;5.316;2023-03-20T04:11:46;31.02;;;11.68;;
33138;SDS011;19501;50.948;5.316;2023-03-20T04:14:15;30.35;;;11.90;;
33138;SDS011;19501;50.948;5.316;2023-03-20T04:16:41;29.02;;;12.30;;
33138;SDS011;19501;50.948;5.316;2023-03-20T04:19:06;30.48;;;12.32;;
33138;SDS011;19501;50.948;5.316;2023-03-20T04:21:32;30.27;;;12.65;;
33138;SDS011;19501;50.948;5.316;2023-03-20T04:23:58;29.83;;;11.65;;
33138;SDS011;19501;50.948;5.316;2023-03-20T04:26:23;29.38;;;11.75;;
33138;SDS011;19501;50.948;5.316;2023-03-20T04:28:49;31.45;;;12.48;;
33138;SDS011;19501;50.948;5.316;2023-03-20T04:31:18;28.63;;;12.02;;
33138;SDS011;19501;50.948;5.316;2023-03-20T04:33:44;31.70;;;13.50;;
33138;SDS011;19501;50.948;5.316;2023-03-20T04:36:10;33.65;;;14.00;;
33138;SDS011;19501;50.948;5.316;2023-03-20T04:38:36;32.35;;;13.20;;
33138;SDS011;19501;50.948;5.316;2023-03-20T04:41:02;37.33;;;14.02;;
33138;SDS011;19501;50.948;5.316;2023-03-20T04:43:28;35.83;;;15.13;;
33138;SDS011;19501;50.948;5.316;2023-03-20T04:45:54;34.53;;;14.75;;
33138;SDS011;19501;50.948;5.316;2023-03-20T04:48:20;35.50;;;14.73;;
33138;SDS011;19501;50.948;5.316;2023-03-20T04:50:46;36.50;;;15.40;;
33138;SDS011;19501;50.948;5.316;2023-03-20T04:53:13;38.38;;;15.88;;
33138;SDS011;19501;50.948;5.316;2023-03-20T04:55:41;44.35;;;17.77;;
33138;SDS011;19501;50.948;5.316;2023-03-20T04:58:08;40.45;;;17.63;;
33138;SDS011;19501;50.948;5.316;2023-03-20T05:00:34;42.50;;;17.20;;
33138;SDS011;19501;50.948;5.316;2023-03-20T05:02:59;40.38;;;16.35;;
33138;SDS011;19501;50.948;5.316;2023-03-20T05:05:25;39.97;;;17.25;;
33138;SDS011;19501;50.948;5.316;2023-03-20T05:07:53;37.65;;;17.00;;
33138;SDS011;19501;50.948;5.316;2023-03-20T05:10:20;40.95;;;16.55;;
33138;SDS011;19501;50.948;5.316;2023-03-20T05:12:46;45.55;;;17.70;;
33138;SDS011;19501;50.948;5.316;2023-03-20T05:15:11;40.03;;;16.83;;
33138;SDS011;19501;50.948;5.316;2023-03-20T05:17:37;42.63;;;16.38;;
33138;SDS011;19501;50.948;5.316;2023-03-20T05:20:03;41.88;;;17.35;;
33138;SDS011;19501;50.948;5.316;2023-03-20T05:22:30;43.95;;;18.35;;
33138;SDS011;19501;50.948;5.316;2023-03-20T05:24:56;41.00;;;18.00;;
33138;SDS011;19501;50.948;5.316;2023-03-20T05:27:22;45.25;;;17.88;;
33138;SDS011;19501;50.948;5.316;2023-03-20T05:29:47;46.33;;;17.75;;
33138;SDS011;19501;50.948;5.316;2023-03-20T05:32:13;43.05;;;17.77;;
33138;SDS011;19501;50.948;5.316;2023-03-20T05:34:39;43.53;;;16.80;;
33138;SDS011;19501;50.948;5.316;2023-03-20T05:37:05;43.83;;;17.88;;
33138;SDS011;19501;50.948;5.316;2023-03-20T05:39:31;43.10;;;16.63;;
33138;SDS011;19501;50.948;5.316;2023-03-20T05:41:56;45.03;;;18.38;;
33138;SDS011;19501;50.948;5.316;2023-03-20T05:44:22;44.05;;;16.67;;
33138;SDS011;19501;50.948;5.316;2023-03-20T05:46:48;48.55;;;17.38;;
33138;SDS011;19501;50.948;5.316;2023-03-20T05:49:13;44.55;;;17.33;;
33138;SDS011;19501;50.948;5.316;2023-03-20T05:51:41;46.22;;;17.58;;
33138;SDS011;19501;50.948;5.316;2023-03-20T05:54:07;45.88;;;16.55;;
33138;SDS011;19501;50.948;5.316;2023-03-20T05:56:32;45.25;;;18.33;;
33138;SDS011;19501;50.948;5.316;2023-03-20T05:58:58;43.42;;;17.52;;
33138;SDS011;19501;50.948;5.316;2023-03-20T06:01:23;43.40;;;16.55;;
33138;SDS011;19501;50.948;5.316;2023-03-20T06:03:49;41.75;;;16.02;;
33138;SDS011;19501;50.948;5.316;2023-03-20T06:06:15;44.40;;;17.20;;
33138;SDS011;19501;50.948;5.316;2023-03-20T06:08:42;45.78;;;16.73;;
33138;SDS011;19501;50.948;5.316;2023-03-20T06:11:08;43.90;;;15.93;;
33138;SDS011;19501;50.948;5.316;2023-03-20T06:13:34;38.95;;;14.98;;
33138;SDS011;19501;50.948;5.316;2023-03-20T06:16:00;46.47;;;16.73;;
33138;SDS011;19501;50.948;5.316;2023-03-20T06:18:26;40.30;;;14.02;;
33138;SDS011;19501;50.948;5.316;2023-03-20T06:20:55;38.45;;;14.75;;
33138;SDS011;19501;50.948;5.316;2023-03-20T06:23:21;43.60;;;15.68;;
33138;SDS011;19501;50.948;5.316;2023-03-20T06:25:48;35.28;;;14.73;;
33138;SDS011;19501;50.948;5.316;2023-03-20T06:28:13;43.63;;;15.82;;
33138;SDS011;19501;50.948;5.316;2023-03-20T06:30:40;38.80;;;14.30;;
33138;SDS011;19501;50.948;5.316;2023-03-20T06:33:06;39.88;;;12.95;;
33138;SDS011;19501;50.948;5.316;2023-03-20T06:35:32;39.53;;;14.57;;
33138;SDS011;19501;50.948;5.316;2023-03-20T06:37:58;42.83;;;14.00;;
33138;SDS011;19501;50.948;5.316;2023-03-20T06:40:24;44.70;;;14.70;;
33138;SDS011;19501;50.948;5.316;2023-03-20T06:42:53;39.45;;;13.52;;
33138;SDS011;19501;50.948;5.316;2023-03-20T06:45:19;40.53;;;14.60;;
33138;SDS011;19501;50.948;5.316;2023-03-20T06:47:45;41.78;;;14.38;;
33138;SDS011;19501;50.948;5.316;2023-03-20T06:50:12;37.22;;;13.43;;
33138;SDS011;19501;50.948;5.316;2023-03-20T06:52:38;38.90;;;13.25;;
33138;SDS011;19501;50.948;5.316;2023-03-20T06:55:04;38.90;;;13.32;;
33138;SDS011;19501;50.948;5.316;2023-03-20T06:57:31;41.70;;;12.63;;
33138;SDS011;19501;50.948;5.316;2023-03-20T06:59:58;33.90;;;12.68;;
33138;SDS011;19501;50.948;5.316;2023-03-20T07:02:24;32.17;;;13.23;;
33138;SDS011;19501;50.948;5.316;2023-03-20T07:04:50;36.83;;;13.18;;
33138;SDS011;19501;50.948;5.316;2023-03-20T07:07:16;41.13;;;13.32;;
33138;SDS011;19501;50.948;5.316;2023-03-20T07:09:44;35.38;;;12.68;;
33138;SDS011;19501;50.948;5.316;2023-03-20T07:12:11;36.35;;;11.35;;
33138;SDS011;19501;50.948;5.316;2023-03-20T07:14:41;32.20;;;10.13;;
33138;SDS011;19501;50.948;5.316;2023-03-20T07:17:07;26.95;;;9.85;;
33138;SDS011;19501;50.948;5.316;2023-03-20T07:19:34;31.05;;;10.98;;
33138;SDS011;19501;50.948;5.316;2023-03-20T07:22:02;28.40;;;9.48;;
33138;SDS011;19501;50.948;5.316;2023-03-20T07:24:30;29.65;;;9.52;;
33138;SDS011;19501;50.948;5.316;2023-03-20T07:26:56;32.67;;;9.90;;
33138;SDS011;19501;50.948;5.316;2023-03-20T07:29:22;27.58;;;10.23;;
33138;SDS011;19501;50.948;5.316;2023-03-20T07:31:48;24.83;;;8.65;;
33138;SDS011;19501;50.948;5.316;2023-03-20T07:34:13;25.70;;;7.82;;
33138;SDS011;19501;50.948;5.316;2023-03-20T07:36:39;30.52;;;8.75;;
33138;SDS011;19501;50.948;5.316;2023-03-20T07:39:06;28.63;;;8.20;;
33138;SDS011;19501;50.948;5.316;2023-03-20T07:41:32;23.58;;;6.43;;
33138;SDS011;19501;50.948;5.316;2023-03-20T07:43:58;21.85;;;6.75;;
33138;SDS011;19501;50.948;5.316;2023-03-20T07:46:23;23.88;;;8.18;;
33138;SDS011;19501;50.948;5.316;2023-03-20T07:48:50;26.92;;;7.95;;
33138;SDS011;19501;50.948;5.316;2023-03-20T07:51:15;24.17;;;8.10;;
33138;SDS011;19501;50.948;5.316;2023-03-20T07:53:41;28.58;;;7.90;;
33138;SDS011;19501;50.948;5.316;2023-03-20T07:56:07;27.02;;;8.38;;
33138;SDS011;19501;50.948;5.316;2023-03-20T07:58:33;24.85;;;8.02;;
33138;SDS011;19501;50.948;5.316;2023-03-20T08:01:00;31.33;;;8.52;;
33138;SDS011;19501;50.948;5.316;2023-03-20T08:03:26;24.40;;;7.85;;
33138;SDS011;19501;50.948;5.316;2023-03-20T08:05:52;24.38;;;7.28;;
33138;SDS011;19501;50.948;5.316;2023-03-20T08:08:20;29.25;;;8.82;;
33138;SDS011;19501;50.948;5.316;2023-03-20T08:10:46;25.52;;;7.72;;
33138;SDS011;19501;50.948;5.316;2023-03-20T08:13:12;30.08;;;7.30;;
33138;SDS011;19501;50.948;5.316;2023-03-20T08:15:38;23.90;;;7.43;;
33138;SDS011;19501;50.948;5.316;2023-03-20T08:18:04;24.15;;;6.95;;
33138;SDS011;19501;50.948;5.316;2023-03-20T08:20:30;21.10;;;5.85;;
33138;SDS011;19501;50.948;5.316;2023-03-20T08:22:55;25.92;;;7.72;;
33138;SDS011;19501;50.948;5.316;2023-03-20T08:25:24;19.30;;;6.40;;
33138;SDS011;19501;50.948;5.316;2023-03-20T08:27:50;17.98;;;5.65;;
33138;SDS011;19501;50.948;5.316;2023-03-20T08:30:16;23.83;;;6.82;;
33138;SDS011;19501;50.948;5.316;2023-03-20T08:32:41;24.83;;;6.40;;
33138;SDS011;19501;50.948;5.316;2023-03-20T08:35:07;24.85;;;6.93;;
33138;SDS011;19501;50.948;5.316;2023-03-20T08:37:34;20.33;;;6.93;;
33138;SDS011;19501;50.948;5.316;2023-03-20T08:40:01;25.30;;;6.90;;
33138;SDS011;19501;50.948;5.316;2023-03-20T08:42:28;18.08;;;6.03;;
33138;SDS011;19501;50.948;5.316;2023-03-20T08:44:53;22.77;;;6.57;;
33138;SDS011;19501;50.948;5.316;2023-03-20T08:47:19;25.13;;;7.55;;
33138;SDS011;19501;50.948;5.316;2023-03-20T08:49:45;22.38;;;5.85;;
33138;SDS011;19501;50.948;5.316;2023-03-20T08:52:11;20.40;;;6.50;;
33138;SDS011;19501;50.948;5.316;2023-03-20T08:54:36;24.48;;;7.82;;
33138;SDS011;19501;50.948;5.316;2023-03-20T08:57:02;16.73;;;6.05;;
33138;SDS011;19501;50.948;5.316;2023-03-20T08:59:28;23.58;;;6.28;;
33138;SDS011;19501;50.948;5.316;2023-03-20T09:01:53;19.67;;;6.03;;
33138;SDS011;19501;50.948;5.316;2023-03-20T09:04:19;27.88;;;5.93;;
33138;SDS011;19501;50.948;5.316;2023-03-20T09:06:48;19.83;;;5.90;;
33138;SDS011;19501;50.948;5.316;2023-03-20T09:09:14;20.52;;;5.35;;
33138;SDS011;19501;50.948;5.316;2023-03-20T09:11:42;23.13;;;6.07;;
33138;SDS011;19501;50.948;5.316;2023-03-20T09:14:08;19.52;;;5.88;;
33138;SDS011;19501;50.948;5.316;2023-03-20T09:16:33;24.48;;;6.13;;
33138;SDS011;19501;50.948;5.316;2023-03-20T09:18:59;19.80;;;6.00;;
33138;SDS011;19501;50.948;5.316;2023-03-20T09:21:25;22.65;;;5.60;;
33138;SDS011;19501;50.948;5.316;2023-03-20T09:23:51;19.20;;;6.50;;
33138;SDS011;19501;50.948;5.316;2023-03-20T09:26:17;20.58;;;6.10;;
33138;SDS011;19501;50.948;5.316;2023-03-20T09:28:42;23.08;;;5.85;;
33138;SDS011;19501;50.948;5.316;2023-03-20T09:31:08;19.52;;;5.72;;
33138;SDS011;19501;50.948;5.316;2023-03-20T09:33:34;17.58;;;5.00;;
33138;SDS011;19501;50.948;5.316;2023-03-20T09:36:00;21.17;;;6.00;;
33138;SDS011;19501;50.948;5.316;2023-03-20T09:38:25;25.65;;;5.72;;
33138;SDS011;19501;50.948;5.316;2023-03-20T09:40:55;23.48;;;5.25;;
33138;SDS011;19501;50.948;5.316;2023-03-20T09:49:12;20.25;;;6.18;;
33138;SDS011;19501;50.948;5.316;2023-03-20T09:51:43;24.30;;;6.80;;
33138;SDS011;19501;50.948;5.316;2023-03-20T09:56:48;21.65;;;6.55;;
33138;SDS011;19501;50.948;5.316;2023-03-20T09:59:15;20.65;;;7.05;;
33138;SDS011;19501;50.948;5.316;2023-03-20T10:04:20;25.90;;;6.57;;
33138;SDS011;19501;50.948;5.316;2023-03-20T10:06:48;20.13;;;6.85;;
33138;SDS011;19501;50.948;5.316;2023-03-20T10:09:20;21.45;;;6.20;;
33138;SDS011;19501;50.948;5.316;2023-03-20T10:12:03;20.00;;;7.10;;
33138;SDS011;19501;50.948;5.316;2023-03-20T10:23:19;20.58;;;6.10;;
33138;SDS011;19501;50.948;5.316;2023-03-20T10:26:09;21.83;;;6.85;;
33138;SDS011;19501;50.948;5.316;2023-03-20T10:31:18;25.80;;;8.00;;
33138;SDS011;19501;50.948;5.316;2023-03-20T10:34:09;22.15;;;6.30;;
33138;SDS011;19501;50.948;5.316;2023-03-20T10:41:55;24.80;;;7.57;;
33138;SDS011;19501;50.948;5.316;2023-03-20T10:44:33;24.77;;;6.88;;
33138;SDS011;19501;50.948;5.316;2023-03-20T10:47:11;23.10;;;6.88;;
33138;SDS011;19501;50.948;5.316;2023-03-20T10:49:51;30.00;;;7.53;;
33138;SDS011;19501;50.948;5.316;2023-03-20T10:52:23;24.55;;;6.82;;
33138;SDS011;19501;50.948;5.316;2023-03-20T10:54:55;31.08;;;7.38;;
33138;SDS011;19501;50.948;5.316;2023-03-20T10:57:30;29.42;;;7.38;;
33138;SDS011;19501;50.948;5.316;2023-03-20T11:00:05;24.90;;;6.63;;
33138;SDS011;19501;50.948;5.316;2023-03-20T11:02:38;22.67;;;6.85;;
33138;SDS011;19501;50.948;5.316;2023-03-20T11:08:12;22.48;;;5.75;;
33138;SDS011;19501;50.948;5.316;2023-03-20T11:10:39;24.73;;;5.88;;
33138;SDS011;19501;50.948;5.316;2023-03-20T11:13:24;25.10;;;6.75;;
33138;SDS011;19501;50.948;5.316;2023-03-20T11:15:54;25.65;;;7.53;;
33138;SDS011;19501;50.948;5.316;2023-03-20T11:18:22;23.52;;;6.13;;
33138;SDS011;19501;50.948;5.316;2023-03-20T11:20:51;24.33;;;6.88;;
33138;SDS011;19501;50.948;5.316;2023-03-20T11:23:25;21.90;;;6.25;;
33138;SDS011;19501;50.948;5.316;2023-03-20T11:25:58;21.75;;;6.63;;
33138;SDS011;19501;50.948;5.316;2023-03-20T11:31:05;17.38;;;6.03;;
33138;SDS011;19501;50.948;5.316;2023-03-20T11:33:43;23.02;;;5.47;;
33138;SDS011;19501;50.948;5.316;2023-03-20T11:36:30;25.23;;;5.35;;
33138;SDS011;19501;50.948;5.316;2023-03-20T11:39:15;19.95;;;6.53;;
33138;SDS011;19501;50.948;5.316;2023-03-20T11:41:49;23.20;;;6.38;;
33138;SDS011;19501;50.948;5.316;2023-03-20T11:44:30;22.80;;;6.38;;
33138;SDS011;19501;50.948;5.316;2023-03-20T11:49:31;19.38;;;5.20;;
33138;SDS011;19501;50.948;5.316;2023-03-20T11:52:13;19.73;;;6.00;;
33138;SDS011;19501;50.948;5.316;2023-03-20T11:54:48;24.00;;;6.40;;
33138;SDS011;19501;50.948;5.316;2023-03-20T12:00:04;23.73;;;6.15;;
33138;SDS011;19501;50.948;5.316;2023-03-20T12:02:35;13.65;;;5.25;;
33138;SDS011;19501;50.948;5.316;2023-03-20T12:05:16;25.20;;;5.72;;
33138;SDS011;19501;50.948;5.316;2023-03-20T12:10:51;20.40;;;5.03;;
33138;SDS011;19501;50.948;5.316;2023-03-20T12:13:25;15.55;;;4.90;;
33138;SDS011;19501;50.948;5.316;2023-03-20T12:16:00;20.38;;;5.43;;
33138;SDS011;19501;50.948;5.316;2023-03-20T12:23:26;20.02;;;5.95;;
33138;SDS011;19501;50.948;5.316;2023-03-20T12:32:04;19.30;;;6.05;;
33138;SDS011;19501;50.948;5.316;2023-03-20T12:36:41;20.38;;;5.35;;
33138;SDS011;19501;50.948;5.316;2023-03-20T12:39:52;21.45;;;6.03;;
33138;SDS011;19501;50.948;5.316;2023-03-20T12:55:43;12.70;;;3.92;;
33138;SDS011;19501;50.948;5.316;2023-03-20T13:01:20;19.90;;;4.63;;
33138;SDS011;19501;50.948;5.316;2023-03-20T13:06:52;18.55;;;4.93;;
33138;SDS011;19501;50.948;5.316;2023-03-20T13:21:05;25.08;;;6.15;;
33138;SDS011;19501;50.948;5.316;2023-03-20T13:29:58;17.13;;;5.43;;
33138;SDS011;19501;50.948;5.316;2023-03-20T13:32:15;15.57;;;5.03;;
33138;SDS011;19501;50.948;5.316;2023-03-20T13:35:11;22.80;;;5.43;;
33138;SDS011;19501;50.948;5.316;2023-03-20T13:40:31;17.30;;;4.90;;
33138;SDS011;19501;50.948;5.316;2023-03-20T13:45:39;24.38;;;6.00;;
33138;SDS011;19501;50.948;5.316;2023-03-20T13:48:51;17.00;;;4.68;;
33138;SDS011;19501;50.948;5.316;2023-03-20T13:50:55;17.77;;;5.28;;
33138;SDS011;19501;50.948;5.316;2023-03-20T13:53:32;17.92;;;5.15;;
33138;SDS011;19501;50.948;5.316;2023-03-20T13:58:45;16.77;;;5.05;;
33138;SDS011;19501;50.948;5.316;2023-03-20T14:04:02;18.60;;;5.95;;
33138;SDS011;19501;50.948;5.316;2023-03-20T14:06:42;22.88;;;5.60;;
33138;SDS011;19501;50.948;5.316;2023-03-20T14:09:26;20.38;;;6.63;;
33138;SDS011;19501;50.948;5.316;2023-03-20T14:12:00;21.13;;;5.90;;
33138;SDS011;19501;50.948;5.316;2023-03-20T14:17:21;23.40;;;6.50;;
33138;SDS011;19501;50.948;5.316;2023-03-20T14:19:50;20.70;;;6.45;;
33138;SDS011;19501;50.948;5.316;2023-03-20T14:22:28;17.83;;;5.00;;
33138;SDS011;19501;50.948;5.316;2023-03-20T14:25:03;21.38;;;6.10;;
33138;SDS011;19501;50.948;5.316;2023-03-20T14:27:34;27.92;;;6.32;;
33138;SDS011;19501;50.948;5.316;2023-03-20T14:32:58;20.30;;;6.55;;
33138;SDS011;19501;50.948;5.316;2023-03-20T14:35:35;18.50;;;5.70;;
33138;SDS011;19501;50.948;5.316;2023-03-20T14:41:08;18.70;;;6.45;;
33138;SDS011;19501;50.948;5.316;2023-03-20T14:49:01;19.98;;;6.35;;
33138;SDS011;19501;50.948;5.316;2023-03-20T14:51:42;21.92;;;7.10;;
33138;SDS011;19501;50.948;5.316;2023-03-20T14:56:46;27.13;;;7.13;;
33138;SDS011;19501;50.948;5.316;2023-03-20T14:59:13;21.08;;;6.53;;
33138;SDS011;19501;50.948;5.316;2023-03-20T15:07:03;14.85;;;5.38;;
33138;SDS011;19501;50.948;5.316;2023-03-20T15:09:37;18.75;;;6.80;;
33138;SDS011;19501;50.948;5.316;2023-03-20T15:12:08;20.75;;;6.72;;
33138;SDS011;19501;50.948;5.316;2023-03-20T15:14:44;19.35;;;6.85;;
33138;SDS011;19501;50.948;5.316;2023-03-20T15:17:21;22.23;;;6.70;;
33138;SDS011;19501;50.948;5.316;2023-03-20T15:19:58;25.20;;;7.18;;
33138;SDS011;19501;50.948;5.316;2023-03-20T15:22:31;24.52;;;7.20;;
33138;SDS011;19501;50.948;5.316;2023-03-20T15:24:57;24.50;;;7.00;;
33138;SDS011;19501;50.948;5.316;2023-03-20T15:27:24;22.90;;;7.05;;
33138;SDS011;19501;50.948;5.316;2023-03-20T15:29:53;20.00;;;5.65;;
33138;SDS011;19501;50.948;5.316;2023-03-20T15:32:21;16.30;;;6.35;;
33138;SDS011;19501;50.948;5.316;2023-03-20T15:34:48;20.75;;;6.65;;
33138;SDS011;19501;50.948;5.316;2023-03-20T15:37:16;24.08;;;7.95;;
33138;SDS011;19501;50.948;5.316;2023-03-20T15:39:45;19.08;;;6.35;;
33138;SDS011;19501;50.948;5.316;2023-03-20T15:42:18;23.33;;;6.55;;
33138;SDS011;19501;50.948;5.316;2023-03-20T15:44:46;24.15;;;7.30;;
33138;SDS011;19501;50.948;5.316;2023-03-20T15:47:20;21.25;;;7.18;;
33138;SDS011;19501;50.948;5.316;2023-03-20T15:49:53;24.88;;;6.20;;
33138;SDS011;19501;50.948;5.316;2023-03-20T15:52:41;19.70;;;6.38;;
33138;SDS011;19501;50.948;5.316;2023-03-20T15:55:17;20.00;;;6.72;;
33138;SDS011;19501;50.948;5.316;2023-03-20T15:57:44;25.00;;;7.63;;
33138;SDS011;19501;50.948;5.316;2023-03-20T16:02:51;19.35;;;5.68;;
33138;SDS011;19501;50.948;5.316;2023-03-20T16:05:17;23.95;;;7.55;;
33138;SDS011;19501;50.948;5.316;2023-03-20T16:07:46;24.15;;;6.78;;
33138;SDS011;19501;50.948;5.316;2023-03-20T16:10:19;22.38;;;6.72;;
33138;SDS011;19501;50.948;5.316;2023-03-20T16:12:49;20.88;;;7.18;;
33138;SDS011;19501;50.948;5.316;2023-03-20T16:15:19;24.30;;;7.47;;
33138;SDS011;19501;50.948;5.316;2023-03-20T16:17:48;23.88;;;7.72;;
33138;SDS011;19501;50.948;5.316;2023-03-20T16:20:18;32.85;;;7.90;;
33138;SDS011;19501;50.948;5.316;2023-03-20T16:22:44;22.85;;;6.63;;
33138;SDS011;19501;50.948;5.316;2023-03-20T16:25:14;24.27;;;6.78;;
33138;SDS011;19501;50.948;5.316;2023-03-20T16:27:42;23.38;;;6.78;;
33138;SDS011;19501;50.948;5.316;2023-03-20T16:30:26;27.98;;;7.63;;
33138;SDS011;19501;50.948;5.316;2023-03-20T16:32:59;25.58;;;6.45;;
33138;SDS011;19501;50.948;5.316;2023-03-20T16:35:31;23.08;;;6.90;;
33138;SDS011;19501;50.948;5.316;2023-03-20T16:38:30;33.42;;;7.53;;
33138;SDS011;19501;50.948;5.316;2023-03-20T16:41:21;26.10;;;8.90;;
33138;SDS011;19501;50.948;5.316;2023-03-20T16:46:36;25.33;;;8.13;;
33138;SDS011;19501;50.948;5.316;2023-03-20T16:52:00;25.67;;;7.53;;
33138;SDS011;19501;50.948;5.316;2023-03-20T16:54:34;23.60;;;8.20;;
33138;SDS011;19501;50.948;5.316;2023-03-20T16:57:01;23.55;;;7.90;;
33138;SDS011;19501;50.948;5.316;2023-03-20T16:59:31;25.55;;;8.75;;
33138;SDS011;19501;50.948;5.316;2023-03-20T17:01:58;27.88;;;8.57;;
33138;SDS011;19501;50.948;5.316;2023-03-20T17:04:33;26.35;;;7.90;;
33138;SDS011;19501;50.948;5.316;2023-03-20T17:07:05;24.35;;;8.80;;
33138;SDS011;19501;50.948;5.316;2023-03-20T17:09:31;23.40;;;8.20;;
33138;SDS011;19501;50.948;5.316;2023-03-20T17:12:00;25.35;;;8.13;;
33138;SDS011;19501;50.948;5.316;2023-03-20T17:14:41;27.95;;;8.95;;
33138;SDS011;19501;50.948;5.316;2023-03-20T17:17:11;24.15;;;7.97;;
33138;SDS011;19501;50.948;5.316;2023-03-20T17:19:41;23.65;;;7.80;;
33138;SDS011;19501;50.948;5.316;2023-03-20T17:22:17;26.92;;;8.82;;
33138;SDS011;19501;50.948;5.316;2023-03-20T17:24:46;19.63;;;7.05;;
33138;SDS011;19501;50.948;5.316;2023-03-20T17:27:20;25.08;;;9.00;;
33138;SDS011;19501;50.948;5.316;2023-03-20T17:29:47;33.70;;;9.45;;
33138;SDS011;19501;50.948;5.316;2023-03-20T17:32:19;29.20;;;8.77;;
33138;SDS011;19501;50.948;5.316;2023-03-20T17:34:49;24.13;;;8.27;;
33138;SDS011;19501;50.948;5.316;2023-03-20T17:37:17;22.92;;;9.07;;
33138;SDS011;19501;50.948;5.316;2023-03-20T17:39:52;27.88;;;9.45;;
33138;SDS011;19501;50.948;5.316;2023-03-20T17:42:22;31.13;;;9.13;;
33138;SDS011;19501;50.948;5.316;2023-03-20T17:44:50;27.25;;;9.00;;
33138;SDS011;19501;50.948;5.316;2023-03-20T17:47:18;31.73;;;9.70;;